Time;durP1;ratioP1;P1;durP2;ratioP2;P2;SDS_P1;SDS_P2;PMS_P1;PMS_P2;Temp;Humidity;BMP_temperature;BMP_pressure;BME280_temperature;BME280_humidity;BME280_pressure;Samples;Min_cycle;Max_cycle;Signal;HPM_P1;HPM_P2
2022/07/29 00:01:52;;;;;;;7.78;2.63;;;15.40;99.90;;;;;;5099271;27;20047;-92
2022/07/29 00:04:19;;;;;;;2.70;1.73;;;15.40;99.90;;;;;;5079476;27;20043;-89
2022/07/29 00:06:46;;;;;;;5.95;1.88;;;15.40;99.90;;;;;;5071064;27;20043;-93
2022/07/29 00:09:12;;;;;;;4.13;2.03;;;15.40;99.90;;;;;;5079291;27;20039;-91
2022/07/29 00:11:38;;;;;;;4.60;1.90;;;15.40;99.90;;;;;;5066009;27;20035;-90
2022/07/29 00:14:04;;;;;;;4.65;1.98;;;15.40;99.90;;;;;;5061214;27;20039;-92
2022/07/29 00:16:31;;;;;;;4.22;2.00;;;15.30;99.90;;;;;;5081889;27;20038;-91
2022/07/29 00:18:57;;;;;;;3.65;1.83;;;15.30;99.90;;;;;;5078890;27;20055;-92
2022/07/29 00:21:24;;;;;;;2.45;1.85;;;15.20;99.90;;;;;;5086412;27;20123;-92
2022/07/29 00:23:50;;;;;;;3.92;2.05;;;15.30;99.90;;;;;;5082548;27;20070;-90
2022/07/29 00:26:16;;;;;;;4.40;1.92;;;15.20;99.90;;;;;;5061348;27;20087;-90
2022/07/29 00:28:42;;;;;;;2.83;1.70;;;15.30;99.90;;;;;;5089072;27;20051;-90
2022/07/29 00:31:09;;;;;;;3.58;1.98;;;15.20;99.90;;;;;;5068603;27;20042;-90
2022/07/29 00:33:35;;;;;;;3.40;1.83;;;15.20;99.90;;;;;;5082970;27;20053;-91
2022/07/29 00:36:01;;;;;;;3.90;1.85;;;15.20;99.90;;;;;;5048789;27;20505;-91
2022/07/29 00:38:28;;;;;;;4.32;2.15;;;15.10;99.90;;;;;;5079980;27;20084;-91
2022/07/29 00:40:54;;;;;;;4.95;1.95;;;15.20;99.90;;;;;;5060047;27;20045;-91
2022/07/29 00:43:20;;;;;;;4.15;2.05;;;15.10;99.90;;;;;;5082097;27;20049;-93
2022/07/29 00:45:50;;;;;;;5.15;2.38;;;15.10;99.90;;;;;;5093665;27;20050;-90
2022/07/29 00:48:16;;;;;;;4.97;1.85;;;15.10;99.90;;;;;;5097058;27;20043;-91
2022/07/29 00:50:42;;;;;;;4.07;2.20;;;15.10;99.90;;;;;;5064895;27;20130;-91
2022/07/29 00:53:14;;;;;;;4.22;2.50;;;15.10;99.90;;;;;;5059189;27;20065;-92
2022/07/29 00:55:40;;;;;;;;;;;15.10;99.90;;;;;;5123356;27;20122;-91
2022/07/29 00:58:06;;;;;;;5.03;2.17;;;15.10;99.90;;;;;;5085762;27;19915;-90
2022/07/29 01:00:33;;;;;;;4.43;2.50;;;15.10;99.90;;;;;;5066031;27;20054;-90
2022/07/29 01:03:00;;;;;;;4.35;2.13;;;15.10;99.90;;;;;;5083411;27;20068;-92
2022/07/29 01:05:28;;;;;;;5.95;2.45;;;15.10;99.90;;;;;;5099183;27;20034;-91
2022/07/29 01:07:58;;;;;;;5.85;2.33;;;15.10;99.90;;;;;;5073783;27;20039;-92
2022/07/29 01:10:25;;;;;;;4.50;2.35;;;15.00;99.90;;;;;;5096428;27;20562;-91
2022/07/29 01:12:53;;;;;;;3.85;1.95;;;15.00;99.90;;;;;;5099763;27;20399;-91
2022/07/29 01:15:20;;;;;;;2.72;1.80;;;15.10;99.90;;;;;;5088077;27;20048;-91
2022/07/29 01:17:59;;;;;;;4.63;2.20;;;15.00;99.90;;;;;;5086880;27;20061;-93
2022/07/29 01:20:56;;;;;;;3.35;1.85;;;15.10;99.90;;;;;;5123820;27;20050;-91
2022/07/29 01:23:31;;;;;;;4.70;2.13;;;15.10;99.90;;;;;;5115672;27;20138;-92
2022/07/29 01:26:35;;;;;;;2.90;2.05;;;15.10;99.90;;;;;;5108449;27;20042;-91
2022/07/29 01:29:13;;;;;;;4.43;2.08;;;15.10;99.90;;;;;;5071579;27;20042;-90
2022/07/29 01:31:47;;;;;;;6.43;2.15;;;15.10;99.90;;;;;;5096283;27;20103;-92
2022/07/29 01:34:58;;;;;;;7.28;2.10;;;15.10;99.90;;;;;;5104405;27;20067;-92
2022/07/29 01:37:45;;;;;;;4.07;2.13;;;15.10;99.90;;;;;;5123205;27;20081;-91
2022/07/29 01:40:18;;;;;;;5.63;2.30;;;15.10;99.90;;;;;;5134634;27;20074;-91
2022/07/29 01:42:50;;;;;;;6.43;2.38;;;15.10;99.90;;;;;;5089613;27;20111;-91
2022/07/29 01:45:24;;;;;;;4.38;2.00;;;15.10;99.90;;;;;;5098682;27;20046;-92
2022/07/29 01:48:03;;;;;;;3.78;2.13;;;15.10;99.90;;;;;;5075644;27;20112;-91
2022/07/29 01:50:47;;;;;;;3.28;2.10;;;15.10;99.90;;;;;;5076716;27;20050;-92
2022/07/29 01:53:21;;;;;;;4.25;1.98;;;15.10;99.90;;;;;;5076777;27;20094;-93
2022/07/29 01:55:49;;;;;;;3.63;2.10;;;15.00;99.90;;;;;;5087337;27;20590;-90
2022/07/29 01:58:18;;;;;;;4.72;1.90;;;15.00;99.90;;;;;;5079127;27;20071;-92
2022/07/29 02:00:56;;;;;;;4.03;2.00;;;15.00;99.90;;;;;;5081319;27;20574;-92
2022/07/29 02:03:23;;;;;;;5.53;2.38;;;15.00;99.90;;;;;;5095112;27;20051;-91
2022/07/29 02:05:55;;;;;;;4.03;2.28;;;15.00;99.90;;;;;;5067311;27;20035;-91
2022/07/29 02:08:24;;;;;;;6.90;2.65;;;15.00;99.90;;;;;;5070487;27;20050;-92
2022/07/29 02:10:52;;;;;;;4.53;2.10;;;15.00;99.90;;;;;;5073041;27;20042;-91
2022/07/29 02:13:21;;;;;;;2.63;1.70;;;15.00;99.90;;;;;;5097388;27;20039;-91
2022/07/29 02:15:51;;;;;;;3.78;1.88;;;14.90;99.90;;;;;;5095123;27;20047;-90
2022/07/29 02:18:18;;;;;;;6.20;2.22;;;14.90;99.90;;;;;;5098516;27;20054;-91
2022/07/29 02:20:48;;;;;;;3.78;2.00;;;14.90;99.90;;;;;;5068645;27;20129;-92
2022/07/29 02:23:19;;;;;;;3.38;1.98;;;14.90;99.90;;;;;;5087158;27;20047;-92
2022/07/29 02:25:50;;;;;;;5.13;2.15;;;14.90;99.90;;;;;;5075495;27;20039;-91
2022/07/29 02:28:18;;;;;;;3.75;1.98;;;14.90;99.90;;;;;;5075580;27;20035;-92
2022/07/29 02:30:46;;;;;;;3.58;2.00;;;14.90;99.90;;;;;;5115716;27;20060;-92
2022/07/29 02:33:17;;;;;;;5.40;2.13;;;14.90;99.90;;;;;;5058702;27;20391;-92
2022/07/29 02:35:44;;;;;;;5.22;2.30;;;14.90;99.90;;;;;;5097662;27;20117;-92
2022/07/29 02:41:07;;;;;;;7.43;2.13;;;14.80;99.90;;;;;;5113291;27;20043;-92
2022/07/29 02:43:33;;;;;;;;;;;14.80;99.90;;;;;;5097363;27;20121;-92
2022/07/29 02:46:07;;;;;;;4.85;2.10;;;14.70;99.90;;;;;;5104730;27;19915;-93
2022/07/29 02:49:19;;;;;;;5.55;2.15;;;14.80;99.90;;;;;;5090434;28;20282;-92
2022/07/29 02:51:51;;;;;;;5.38;1.95;;;14.80;99.90;;;;;;5082966;27;20045;-91
2022/07/29 02:54:27;;;;;;;4.15;2.08;;;14.80;99.90;;;;;;5061746;27;20035;-91
2022/07/29 02:56:56;;;;;;;5.75;2.25;;;14.80;99.90;;;;;;5088393;27;20039;-90
2022/07/29 02:59:27;;;;;;;5.10;2.13;;;14.80;99.90;;;;;;5084419;27;20246;-91
2022/07/29 03:01:55;;;;;;;3.72;2.33;;;14.80;99.90;;;;;;5094946;27;20043;-90
2022/07/29 03:04:23;;;;;;;3.67;1.77;;;14.80;99.90;;;;;;5110925;27;20043;-91
2022/07/29 03:06:52;;;;;;;4.00;1.88;;;14.80;99.90;;;;;;5092747;27;20043;-91
2022/07/29 03:09:19;;;;;;;5.38;1.98;;;14.70;99.90;;;;;;5083710;27;20490;-91
2022/07/29 03:11:45;;;;;;;5.03;2.30;;;14.70;99.90;;;;;;5091986;27;20051;-92
2022/07/29 03:14:13;;;;;;;4.10;1.88;;;14.70;99.90;;;;;;5051035;27;20127;-90
2022/07/29 03:16:40;;;;;;;12.85;3.35;;;14.70;99.90;;;;;;5081264;27;20476;-92
2022/07/29 03:19:06;;;;;;;4.28;2.03;;;14.70;99.90;;;;;;5050138;27;20122;-91
2022/07/29 03:21:34;;;;;;;4.47;2.20;;;14.60;99.90;;;;;;5093953;27;20039;-91
2022/07/29 03:24:07;;;;;;;5.50;2.40;;;14.70;99.90;;;;;;5077704;27;20069;-90
2022/07/29 03:26:37;;;;;;;5.32;2.15;;;14.60;99.90;;;;;;5103882;27;20042;-91
2022/07/29 03:29:05;;;;;;;4.65;1.88;;;14.60;99.90;;;;;;5084888;27;20038;-92
2022/07/29 03:31:31;;;;;;;5.72;2.17;;;14.60;99.90;;;;;;5092381;28;20047;-91
2022/07/29 03:33:57;;;;;;;4.90;2.55;;;14.60;99.90;;;;;;5068905;27;20103;-91
2022/07/29 03:36:24;;;;;;;5.07;1.85;;;14.60;99.90;;;;;;5078465;27;20077;-93
2022/07/29 03:38:53;;;;;;;4.47;2.05;;;14.60;99.90;;;;;;5083992;27;20047;-91
2022/07/29 03:41:22;;;;;;;6.90;2.35;;;14.60;99.90;;;;;;5100078;27;20491;-90
2022/07/29 03:43:51;;;;;;;3.40;1.83;;;14.50;99.90;;;;;;5098598;27;20062;-91
2022/07/29 03:46:20;;;;;;;4.00;2.28;;;14.50;99.90;;;;;;5107228;27;20740;-92
2022/07/29 03:48:50;;;;;;;8.38;2.35;;;14.50;99.90;;;;;;5085114;27;20042;-91
2022/07/29 03:51:16;;;;;;;4.40;1.80;;;14.50;99.90;;;;;;5082958;27;20042;-92
2022/07/29 03:53:42;;;;;;;5.65;2.33;;;14.50;99.90;;;;;;5068121;27;20078;-91
2022/07/29 03:56:10;;;;;;;5.13;2.58;;;14.50;99.90;;;;;;5051090;27;20043;-92
2022/07/29 03:58:37;;;;;;;4.60;1.75;;;14.50;99.90;;;;;;5078797;27;20387;-90
2022/07/29 04:01:03;;;;;;;5.95;2.47;;;14.40;99.90;;;;;;5062883;27;20039;-91
2022/07/29 04:03:30;;;;;;;4.00;1.90;;;14.50;99.90;;;;;;5049846;27;20600;-91
2022/07/29 04:06:08;;;;;;;5.85;2.20;;;14.50;99.90;;;;;;5099502;27;20043;-91
2022/07/29 04:08:34;;;;;;;5.55;2.13;;;14.50;99.90;;;;;;5096860;27;20043;-91
2022/07/29 04:11:01;;;;;;;4.28;2.10;;;14.50;99.90;;;;;;5076101;27;20043;-91
2022/07/29 04:13:28;;;;;;;4.72;2.20;;;14.50;99.90;;;;;;5094688;27;20055;-90
2022/07/29 04:15:56;;;;;;;5.32;2.03;;;14.50;99.90;;;;;;5046674;27;20043;-91
2022/07/29 04:18:22;;;;;;;4.55;2.53;;;14.50;99.90;;;;;;5076649;27;20050;-91
2022/07/29 04:20:48;;;;;;;5.78;2.55;;;14.50;99.90;;;;;;5049682;27;20409;-91
2022/07/29 04:23:19;;;;;;;11.27;2.33;;;14.40;99.90;;;;;;5076460;27;20449;-91
2022/07/29 04:25:50;;;;;;;4.47;2.08;;;14.50;99.90;;;;;;5072742;27;20078;-91
2022/07/29 04:28:16;;;;;;;3.63;2.03;;;14.50;99.90;;;;;;5094855;27;20047;-92
2022/07/29 04:30:44;;;;;;;7.22;3.35;;;14.50;99.90;;;;;;5059538;27;20492;-92
2022/07/29 04:33:11;;;;;;;7.35;2.33;;;14.50;99.90;;;;;;5094170;27;20074;-91
2022/07/29 04:35:40;;;;;;;5.53;2.35;;;14.50;99.90;;;;;;5088712;27;20051;-92
2022/07/29 04:38:06;;;;;;;6.30;2.30;;;14.50;99.90;;;;;;5090065;27;20111;-91
2022/07/29 04:40:33;;;;;;;4.75;2.10;;;14.50;99.90;;;;;;5073508;27;20472;-90
2022/07/29 04:43:00;;;;;;;4.05;2.15;;;14.50;99.90;;;;;;5087975;27;20076;-90
2022/07/29 04:45:28;;;;;;;4.60;2.10;;;14.50;99.90;;;;;;5075202;27;20043;-91
2022/07/29 04:47:54;;;;;;;5.55;2.22;;;14.50;99.90;;;;;;5082648;27;20666;-90
2022/07/29 04:50:21;;;;;;;6.50;2.20;;;14.50;99.90;;;;;;5075724;27;20054;-91
2022/07/29 04:52:48;;;;;;;5.97;1.88;;;14.60;99.90;;;;;;5080868;27;20417;-92
2022/07/29 04:55:15;;;;;;;3.25;1.95;;;14.60;99.90;;;;;;5078871;27;20070;-92
2022/07/29 04:57:41;;;;;;;4.55;2.15;;;14.50;99.90;;;;;;5080504;27;20051;-90
2022/07/29 05:00:08;;;;;;;4.93;1.98;;;14.60;99.90;;;;;;5060875;27;20077;-90
2022/07/29 05:02:36;;;;;;;4.63;1.90;;;14.60;99.90;;;;;;5083288;27;20042;-90
2022/07/29 05:05:02;;;;;;;5.72;2.40;;;14.60;99.90;;;;;;5091404;27;20058;-90
2022/07/29 05:07:29;;;;;;;5.05;1.90;;;14.60;99.90;;;;;;5084757;27;20058;-91
2022/07/29 05:09:56;;;;;;;5.15;2.22;;;14.60;99.90;;;;;;5103821;27;20042;-92
2022/07/29 05:12:24;;;;;;;4.28;2.17;;;14.70;99.90;;;;;;5114038;27;20078;-91
2022/07/29 05:14:50;;;;;;;6.70;2.10;;;14.70;99.90;;;;;;5094956;27;20504;-91
2022/07/29 05:17:17;;;;;;;4.45;2.00;;;14.70;99.90;;;;;;5058056;27;20057;-91
2022/07/29 05:19:43;;;;;;;7.05;2.30;;;14.80;99.90;;;;;;5089567;27;20089;-91
2022/07/29 05:22:11;;;;;;;6.22;2.15;;;14.80;99.90;;;;;;5056190;27;20047;-92
2022/07/29 05:24:37;;;;;;;3.60;1.90;;;14.80;99.90;;;;;;5073389;27;20539;-91
2022/07/29 05:27:04;;;;;;;6.32;2.17;;;14.80;99.90;;;;;;5065291;27;20565;-91
2022/07/29 05:29:30;;;;;;;4.20;2.05;;;14.90;99.90;;;;;;5093973;27;20557;-92
2022/07/29 05:31:58;;;;;;;7.35;2.75;;;14.90;99.90;;;;;;5077625;27;20054;-91
2022/07/29 05:34:24;;;;;;;5.13;2.40;;;14.90;99.90;;;;;;5070228;27;20054;-91
2022/07/29 05:36:51;;;;;;;5.25;1.90;;;15.00;99.90;;;;;;5092442;27;20157;-91
2022/07/29 05:39:17;;;;;;;7.72;1.98;;;15.10;99.90;;;;;;5091173;27;20651;-91
2022/07/29 05:41:43;;;;;;;5.70;2.20;;;15.20;99.90;;;;;;5061362;27;20406;-90
2022/07/29 05:44:09;;;;;;;5.00;2.22;;;15.20;99.90;;;;;;5059214;27;20054;-85
2022/07/29 05:46:35;;;;;;;4.38;1.98;;;15.20;99.90;;;;;;5080919;27;20156;-82
2022/07/29 05:49:02;;;;;;;5.38;2.33;;;15.30;99.90;;;;;;5072011;27;20537;-88
2022/07/29 05:51:29;;;;;;;4.43;2.35;;;15.40;99.90;;;;;;5075720;27;20035;-87
2022/07/29 05:53:56;;;;;;;11.95;5.85;;;15.40;99.90;;;;;;5078335;27;20053;-87
2022/07/29 05:56:22;;;;;;;25.48;20.30;;;15.60;99.90;;;;;;5058775;27;20467;-82
2022/07/29 05:58:48;;;;;;;48.33;43.17;;;15.80;99.90;;;;;;5090534;27;20149;-85
2022/07/29 06:01:14;;;;;;;18.23;16.30;;;15.90;99.90;;;;;;5072205;27;20121;-83
2022/07/29 06:03:41;;;;;;;18.10;14.68;;;16.00;99.90;;;;;;5032247;27;20051;-83
2022/07/29 06:06:07;;;;;;;4.45;2.17;;;16.10;99.90;;;;;;5068998;27;20431;-86
2022/07/29 06:08:34;;;;;;;5.85;3.38;;;16.20;99.90;;;;;;5074763;27;20065;-84
2022/07/29 06:11:00;;;;;;;10.00;5.95;;;16.50;99.90;;;;;;5085810;27;20350;-84
2022/07/29 06:13:27;;;;;;;5.55;2.47;;;16.70;99.90;;;;;;5074301;27;20074;-85
2022/07/29 06:15:54;;;;;;;9.60;6.93;;;16.90;99.90;;;;;;5074392;27;20465;-88
2022/07/29 06:18:23;;;;;;;13.07;8.40;;;17.20;99.90;;;;;;5075296;27;20096;-87
2022/07/29 06:20:53;;;;;;;77.07;69.28;;;17.30;99.90;;;;;;5085411;27;20108;-85
2022/07/29 06:23:20;;;;;;;5.03;3.00;;;17.40;99.90;;;;;;5081801;27;20484;-83
2022/07/29 06:25:46;;;;;;;6.85;5.20;;;17.50;99.90;;;;;;5073312;27;20686;-85
2022/07/29 06:28:13;;;;;;;15.45;11.73;;;17.50;99.90;;;;;;5056925;27;20618;-85
2022/07/29 06:30:40;;;;;;;4.63;2.00;;;17.60;99.90;;;;;;5077654;27;20038;-87
2022/07/29 06:33:06;;;;;;;21.77;19.45;;;17.60;99.90;;;;;;5058217;27;20070;-88
2022/07/29 06:35:35;;;;;;;10.65;3.55;;;17.60;99.90;;;;;;5078361;27;20043;-90
2022/07/29 06:38:05;;;;;;;6.55;2.90;;;17.70;99.90;;;;;;5073918;27;20063;-90
2022/07/29 06:43:16;;;;;;;10.38;5.30;;;17.70;99.90;;;;;;5077093;27;20084;-90
2022/07/29 06:45:43;;;;;;;8.20;4.18;;;17.60;99.90;;;;;;5037693;27;20034;-89
2022/07/29 06:48:09;;;;;;;19.00;8.00;;;17.60;99.90;;;;;;5071709;27;20099;-86
2022/07/29 06:50:35;;;;;;;19.88;8.63;;;17.60;99.90;;;;;;5085254;27;20035;-85
2022/07/29 06:53:03;;;;;;;10.50;6.32;;;17.70;99.90;;;;;;5052400;27;20047;-90
2022/07/29 06:55:29;;;;;;;48.95;29.33;;;17.60;99.90;;;;;;5078009;27;20108;-86
2022/07/29 06:57:56;;;;;;;23.15;13.38;;;17.50;99.90;;;;;;5054258;27;20553;-85
2022/07/29 07:00:22;;;;;;;39.35;32.03;;;17.60;99.90;;;;;;5088837;27;20038;-87
2022/07/29 07:02:48;;;;;;;24.95;20.70;;;17.70;99.90;;;;;;5049614;27;20489;-87
2022/07/29 07:05:14;;;;;;;31.65;28.08;;;17.70;99.90;;;;;;5032035;27;20067;-92
2022/07/29 07:07:41;;;;;;;9.65;8.13;;;17.70;99.90;;;;;;5068816;27;20038;-88
2022/07/29 07:10:07;;;;;;;16.00;10.88;;;17.70;99.90;;;;;;5060821;27;20043;-89
2022/07/29 07:12:34;;;;;;;24.85;22.20;;;17.60;99.90;;;;;;5133017;27;20199;-87
2022/07/29 07:15:01;;;;;;;14.82;10.90;;;17.60;99.90;;;;;;5079430;27;20108;-89
2022/07/29 07:17:27;;;;;;;7.30;4.70;;;17.60;99.90;;;;;;5082970;27;20042;-87
2022/07/29 07:19:55;;;;;;;140.32;126.70;;;17.70;99.90;;;;;;5093273;27;20047;-90
2022/07/29 07:22:22;;;;;;;11.93;9.95;;;17.80;99.90;;;;;;5078983;27;20606;-91
2022/07/29 07:24:48;;;;;;;22.35;17.70;;;17.80;99.90;;;;;;5090001;27;20039;-92
2022/07/29 07:27:15;;;;;;;26.45;23.63;;;17.80;99.90;;;;;;5080387;27;20050;-88
2022/07/29 07:29:41;;;;;;;20.15;13.63;;;17.60;99.90;;;;;;5075270;27;20043;-89
2022/07/29 07:32:07;;;;;;;15.85;13.63;;;17.70;99.90;;;;;;5055717;27;20043;-88
2022/07/29 07:34:34;;;;;;;12.18;9.60;;;17.60;99.90;;;;;;5062767;27;20472;-85
2022/07/29 07:37:00;;;;;;;9.52;3.75;;;17.70;99.90;;;;;;5054170;27;20042;-85
2022/07/29 07:39:26;;;;;;;8.75;6.40;;;17.80;99.90;;;;;;5078544;27;20043;-85
2022/07/29 07:41:52;;;;;;;7.00;2.70;;;17.90;99.90;;;;;;5043341;27;20039;-85
2022/07/29 07:44:19;;;;;;;6.82;3.83;;;17.90;99.90;;;;;;5076239;27;20050;-85
2022/07/29 07:46:45;;;;;;;10.02;8.15;;;17.90;99.90;;;;;;5059981;27;20050;-87
2022/07/29 07:49:11;;;;;;;5.85;4.20;;;18.00;99.90;;;;;;5071514;27;20080;-86
2022/07/29 07:51:38;;;;;;;5.93;3.17;;;18.00;99.90;;;;;;5092841;27;20051;-85
2022/07/29 07:54:05;;;;;;;5.88;3.47;;;17.90;99.90;;;;;;5051742;27;20462;-87
2022/07/29 07:56:31;;;;;;;10.68;6.88;;;17.90;99.90;;;;;;5055014;27;21745;-85
2022/07/29 07:58:58;;;;;;;8.90;5.50;;;17.90;99.90;;;;;;5070071;27;20054;-86
2022/07/29 08:01:24;;;;;;;5.93;2.80;;;17.80;99.90;;;;;;5074715;27;20062;-85
2022/07/29 08:03:55;;;;;;;8.95;5.75;;;17.80;99.90;;;;;;5057763;27;20039;-85
2022/07/29 08:06:23;;;;;;;13.10;8.40;;;17.90;99.90;;;;;;5098490;27;20196;-82
2022/07/29 08:08:49;;;;;;;30.80;26.77;;;17.90;99.90;;;;;;5127928;27;20103;-83
2022/07/29 08:11:16;;;;;;;38.25;34.47;;;17.90;99.90;;;;;;5075179;27;20494;-81
2022/07/29 08:13:43;;;;;;;41.35;37.00;;;18.00;99.90;;;;;;5066711;27;20051;-83
2022/07/29 08:16:12;;;;;;;11.13;9.20;;;18.10;99.90;;;;;;5088133;27;20066;-83
2022/07/29 08:18:42;;;;;;;21.92;19.63;;;18.30;99.90;;;;;;5060781;27;20114;-83
2022/07/29 08:21:11;;;;;;;8.23;4.55;;;18.40;99.90;;;;;;5086513;27;20154;-82
2022/07/29 08:23:45;;;;;;;17.00;15.25;;;18.60;99.90;;;;;;5088267;27;20118;-84
2022/07/29 08:26:13;;;;;;;10.40;5.45;;;18.80;99.90;;;;;;5075961;27;20081;-91
2022/07/29 08:28:45;;;;;;;7.22;4.13;;;19.00;99.90;;;;;;5094758;27;20042;-91
2022/07/29 08:31:15;;;;;;;4.40;2.35;;;19.10;99.90;;;;;;5079684;27;20074;-91
2022/07/29 08:33:45;;;;;;;9.27;5.70;;;19.30;99.90;;;;;;5095698;27;20035;-91
2022/07/29 08:36:12;;;;;;;8.75;5.50;;;19.30;99.90;;;;;;5114818;27;20052;-92
2022/07/29 08:38:39;;;;;;;12.82;7.03;;;19.40;99.90;;;;;;5107755;27;20191;-92
2022/07/29 08:41:05;;;;;;;4.65;1.70;;;19.50;99.90;;;;;;5133097;27;20043;-91
2022/07/29 08:43:37;;;;;;;11.20;7.15;;;19.50;99.90;;;;;;5112161;27;20039;-91
2022/07/29 08:46:09;;;;;;;8.38;4.38;;;19.50;99.90;;;;;;5111384;27;20039;-91
2022/07/29 08:48:36;;;;;;;6.68;2.83;;;19.40;99.90;;;;;;5056919;27;20050;-93
2022/07/29 08:51:03;;;;;;;9.38;6.05;;;19.30;99.90;;;;;;5083809;27;20050;-93
2022/07/29 08:53:30;;;;;;;13.30;8.50;;;19.30;99.90;;;;;;5078173;27;20082;-92
2022/07/29 08:55:59;;;;;;;6.95;3.47;;;19.20;99.90;;;;;;5073567;27;20042;-91
2022/07/29 08:58:31;;;;;;;8.20;2.90;;;19.20;99.90;;;;;;5087605;27;20047;-91
2022/07/29 09:01:00;;;;;;;5.32;3.97;;;19.10;99.90;;;;;;5065460;27;20043;-90
2022/07/29 09:03:34;;;;;;;10.85;5.55;;;19.10;99.90;;;;;;5067323;27;20043;-92
2022/07/29 09:06:01;;;;;;;9.27;6.05;;;19.10;99.90;;;;;;5093926;27;20122;-92
2022/07/29 09:08:30;;;;;;;4.40;2.25;;;18.90;99.90;;;;;;5108754;27;20070;-91
2022/07/29 09:10:57;;;;;;;11.35;6.85;;;18.90;99.90;;;;;;5109412;27;20039;-93
2022/07/29 09:13:23;;;;;;;10.68;7.75;;;18.90;99.90;;;;;;5076907;27;20126;-92
2022/07/29 09:15:49;;;;;;;7.70;2.78;;;18.90;99.90;;;;;;5074111;27;20063;-91
2022/07/29 09:18:42;;;;;;;6.35;3.28;;;18.80;99.90;;;;;;5079725;27;20042;-91
2022/07/29 09:24:03;;;;;;;7.70;5.53;;;18.80;99.90;;;;;;5086964;27;20043;-92
2022/07/29 09:26:31;;;;;;;5.20;2.25;;;18.80;99.90;;;;;;5070446;27;20486;-91
2022/07/29 09:28:58;;;;;;;11.05;8.57;;;18.90;99.90;;;;;;5106788;27;20091;-91
2022/07/29 09:31:36;;;;;;;7.03;2.78;;;18.90;99.90;;;;;;5072229;28;20555;-91
2022/07/29 09:34:03;;;;;;;5.30;2.33;;;18.90;99.90;;;;;;5072587;27;20494;-91
2022/07/29 09:36:29;;;;;;;9.10;3.90;;;18.90;99.90;;;;;;5075005;27;20054;-91
2022/07/29 09:39:03;;;;;;;7.03;4.13;;;18.90;99.90;;;;;;5067327;27;20085;-91
2022/07/29 09:41:30;;;;;;;5.68;2.97;;;19.00;99.90;;;;;;5077738;27;20050;-92
2022/07/29 09:43:58;;;;;;;7.68;2.33;;;19.10;99.90;;;;;;5073361;27;20545;-91
2022/07/29 09:46:28;;;;;;;9.15;3.80;;;19.00;99.90;;;;;;5089387;27;20122;-93
2022/07/29 09:49:11;;;;;;;7.57;3.08;;;19.00;99.90;;;;;;5061978;28;20039;-92
2022/07/29 09:51:40;;;;;;;6.72;2.70;;;19.10;99.90;;;;;;5059513;27;20043;-91
2022/07/29 09:54:23;;;;;;;6.28;3.80;;;19.10;99.90;;;;;;5071394;28;20051;-92
2022/07/29 09:56:50;;;;;;;4.88;2.05;;;19.10;99.90;;;;;;5087943;27;20416;-92
2022/07/29 09:59:16;;;;;;;8.45;2.72;;;19.00;99.90;;;;;;5085268;27;20047;-91
2022/07/29 10:01:46;;;;;;;6.00;2.28;;;19.20;99.90;;;;;;5034916;27;20090;-91
2022/07/29 10:04:12;;;;;;;7.05;3.10;;;19.30;99.90;;;;;;5057744;28;20119;-92
2022/07/29 10:07:08;;;;;;;7.57;2.67;;;19.30;99.90;;;;;;5052079;27;20627;-92
2022/07/29 10:09:35;;;;;;;6.75;2.85;;;19.30;99.90;;;;;;5104782;27;20047;-90
2022/07/29 10:12:13;;;;;;;5.57;2.65;;;19.30;99.90;;;;;;5076759;27;20042;-92
2022/07/29 10:14:40;;;;;;;6.80;2.38;;;19.40;99.90;;;;;;5086628;27;20039;-92
2022/07/29 10:17:08;;;;;;;4.95;3.08;;;19.40;99.90;;;;;;5088856;27;20154;-91
2022/07/29 10:19:35;;;;;;;3.72;2.22;;;19.40;99.90;;;;;;5095503;27;20062;-92
2022/07/29 10:22:07;;;;;;;11.02;3.63;;;19.60;99.90;;;;;;5070048;27;20135;-85
2022/07/29 10:24:33;;;;;;;5.25;2.40;;;19.60;99.90;;;;;;5094312;27;20035;-90
2022/07/29 10:27:04;;;;;;;8.32;4.57;;;19.70;99.90;;;;;;5089210;27;20043;-87
2022/07/29 10:29:33;;;;;;;11.27;4.20;;;19.70;99.90;;;;;;5067354;27;20112;-89
2022/07/29 10:32:06;;;;;;;8.05;4.47;;;19.80;99.90;;;;;;5105985;27;20058;-85
2022/07/29 10:34:57;;;;;;;6.65;3.88;;;19.90;99.90;;;;;;5100406;27;20513;-91
2022/07/29 10:38:02;;;;;;;9.47;5.80;;;20.00;99.90;;;;;;5066974;27;20532;-89
2022/07/29 10:43:35;;;;;;;6.93;3.28;;;20.10;99.90;;;;;;5100420;28;20456;-90
2022/07/29 10:46:03;;;;;;;10.25;5.50;;;20.00;99.90;;;;;;5063543;28;20088;-91
2022/07/29 10:48:30;;;;;;;9.30;5.50;;;20.00;99.90;;;;;;5070480;27;20625;-90
2022/07/29 10:51:03;;;;;;;9.05;2.80;;;20.10;99.90;;;;;;5066787;27;20070;-89
2022/07/29 10:54:05;;;;;;;8.70;5.57;;;20.30;99.90;;;;;;5066321;28;20051;-90
2022/07/29 10:56:35;;;;;;;9.93;6.70;;;20.40;99.90;;;;;;5051635;28;20047;-91
2022/07/29 10:59:20;;;;;;;6.47;3.00;;;20.50;99.90;;;;;;5053590;27;20050;-88
2022/07/29 11:01:48;;;;;;;5.88;3.47;;;20.60;99.90;;;;;;5068106;28;20043;-88
2022/07/29 11:04:15;;;;;;;9.68;5.28;;;20.60;99.90;;;;;;5102101;28;20443;-90
2022/07/29 11:07:09;;;;;;;13.98;10.82;;;20.60;99.90;;;;;;5086344;27;20042;-88
2022/07/29 11:09:35;;;;;;;18.88;13.43;;;20.70;99.90;;;;;;5099909;28;20050;-89
2022/07/29 11:12:02;;;;;;;7.35;5.32;;;20.80;99.90;;;;;;5072050;28;20051;-88
2022/07/29 11:15:01;;;;;;;7.63;6.25;;;21.00;99.90;;;;;;5068732;28;20169;-89
2022/07/29 11:17:27;;;;;;;6.57;2.08;;;21.30;99.90;;;;;;5074030;28;20047;-88
2022/07/29 11:20:31;;;;;;;6.13;2.55;;;21.50;99.90;;;;;;5067377;28;20051;-88
2022/07/29 11:22:58;;;;;;;14.77;12.95;;;21.60;99.90;;;;;;5067463;28;20047;-87
2022/07/29 11:25:25;;;;;;;11.90;9.38;;;21.70;99.90;;;;;;5080156;28;20043;-89
2022/07/29 11:27:54;;;;;;;18.10;16.20;;;22.10;99.90;;;;;;5043945;28;20184;-89
2022/07/29 11:30:20;;;;;;;9.45;6.45;;;22.30;99.90;;;;;;5080904;28;20056;-89
2022/07/29 11:32:49;;;;;;;9.23;4.90;;;22.20;99.90;;;;;;5069570;28;20498;-86
2022/07/29 11:35:23;;;;;;;7.63;5.70;;;22.20;99.90;;;;;;5072345;28;20117;-88
2022/07/29 11:38:25;;;;;;;7.25;4.00;;;22.20;99.90;;;;;;5084297;28;20074;-91
2022/07/29 11:41:26;;;;;;;15.07;9.52;;;22.20;99.90;;;;;;5068351;28;20051;-85
2022/07/29 11:43:59;;;;;;;8.80;5.43;;;22.40;99.90;;;;;;5069182;28;20071;-89
2022/07/29 11:46:49;;;;;;;11.57;8.93;;;22.40;99.90;;;;;;5084712;28;20556;-90
2022/07/29 11:49:23;;;;;;;7.60;3.08;;;22.20;99.90;;;;;;5063841;28;20039;-89
2022/07/29 11:51:57;;;;;;;11.98;6.65;;;22.10;99.90;;;;;;5081581;27;20072;-90
2022/07/29 11:54:32;;;;;;;4.22;2.53;;;22.10;99.90;;;;;;5073548;28;20498;-89
2022/07/29 11:56:59;;;;;;;4.78;2.25;;;22.10;99.90;;;;;;5102635;27;20038;-89
2022/07/29 11:59:30;;;;;;;8.45;4.88;;;22.00;99.90;;;;;;5082242;27;20039;-90
2022/07/29 12:01:58;;;;;;;8.57;6.15;;;21.90;99.90;;;;;;5101873;27;20090;-90
2022/07/29 12:04:28;;;;;;;14.27;10.13;;;22.10;99.90;;;;;;5113890;27;20097;-89
2022/07/29 12:06:56;;;;;;;6.68;3.30;;;22.10;99.90;;;;;;5099090;27;20031;-89
2022/07/29 12:09:26;;;;;;;5.78;3.58;;;22.30;99.90;;;;;;5100798;27;20032;-88
2022/07/29 12:11:59;;;;;;;6.53;3.45;;;22.60;99.90;;;;;;5106428;28;20042;-89
2022/07/29 12:14:29;;;;;;;13.18;6.88;;;22.70;99.90;;;;;;5099924;28;20098;-89
2022/07/29 12:16:56;;;;;;;8.40;5.93;;;22.90;99.90;;;;;;5091292;27;20499;-89
2022/07/29 12:19:22;;;;;;;19.42;14.07;;;23.20;99.90;;;;;;5069800;28;20134;-89
2022/07/29 12:21:54;;;;;;;11.88;10.40;;;23.50;99.90;;;;;;5056280;28;20487;-89
2022/07/29 12:24:21;;;;;;;6.43;3.20;;;23.80;99.90;;;;;;5054353;28;20048;-87
2022/07/29 12:26:51;;;;;;;15.07;13.02;;;23.90;99.90;;;;;;5087072;28;20047;-89
2022/07/29 12:29:18;;;;;;;9.00;6.60;;;24.40;99.90;;;;;;5103736;28;20253;-88
2022/07/29 12:31:46;;;;;;;13.55;11.93;;;24.60;99.90;;;;;;5051765;28;20078;-88
2022/07/29 12:34:13;;;;;;;13.50;9.40;;;25.00;99.90;;;;;;5072930;28;20043;-88
2022/07/29 12:36:43;;;;;;;10.68;8.23;;;25.20;99.90;;;;;;5064194;28;20079;-89
2022/07/29 12:39:11;;;;;;;16.17;14.48;;;25.50;99.90;;;;;;5054583;28;20036;-90
2022/07/29 12:41:38;;;;;;;10.05;5.20;;;25.60;99.90;;;;;;5055064;28;20044;-90
2022/07/29 12:44:04;;;;;;;13.93;10.38;;;25.70;99.90;;;;;;5051660;28;20047;-91
2022/07/29 12:46:31;;;;;;;10.05;7.50;;;25.60;99.90;;;;;;5066830;28;20126;-90
2022/07/29 12:48:58;;;;;;;12.32;8.68;;;25.80;99.60;;;;;;5029553;28;20066;-90
2022/07/29 12:51:33;;;;;;;8.20;2.88;;;25.60;99.10;;;;;;5053133;28;20475;-89
2022/07/29 12:54:18;;;;;;;6.38;3.63;;;25.90;98.10;;;;;;5087967;28;20101;-87
2022/07/29 12:56:45;;;;;;;5.25;3.70;;;26.50;97.90;;;;;;5085895;28;20493;-88
2022/07/29 12:59:22;;;;;;;6.68;3.80;;;27.00;98.10;;;;;;5051691;28;20048;-87
2022/07/29 13:01:50;;;;;;;7.80;4.75;;;27.80;95.40;;;;;;5058680;28;20603;-88
2022/07/29 13:04:36;;;;;;;7.97;3.58;;;28.30;94.60;;;;;;5077518;28;20681;-89
2022/07/29 13:07:07;;;;;;;11.00;6.72;;;28.30;92.00;;;;;;5071844;28;20042;-91
2022/07/29 13:09:48;;;;;;;9.52;6.38;;;28.80;90.60;;;;;;5070848;28;20392;-88